Time;durP1;ratioP1;P1;durP2;ratioP2;P2;SDS_P1;SDS_P2;PMS_P1;PMS_P2;Temp;Humidity;BMP_temperature;BMP_pressure;BME280_temperature;BME280_humidity;BME280_pressure;Samples;Min_cycle;Max_cycle;Signal;HPM_P1;HPM_P2
2020/12/30 00:00:17;;;;;;;9.40;3.65;;;;;;;;;;5096149;28;20099;-77
2020/12/30 00:02:43;;;;;;;15.25;6.72;;;;;;;;;;5096187;28;20084;-78
2020/12/30 00:05:10;;;;;;;11.43;5.32;;;;;;;;;;5089596;28;20495;-78
2020/12/30 00:07:37;;;;;;;10.35;4.32;;;;;;;;;;5075740;28;20032;-78
2020/12/30 00:10:07;;;;;;;6.50;3.22;;;;;;;;;;5075702;28;20460;-78
2020/12/30 00:12:34;;;;;;;5.88;2.47;;;;;;;;;;5075725;28;20517;-79
2020/12/30 00:15:00;;;;;;;3.03;1.13;;;;;;;;;;5075568;28;20034;-79
2020/12/30 00:17:26;;;;;;;12.50;4.95;;;;;;;;;;5075537;28;20050;-78
2020/12/30 00:19:53;;;;;;;9.85;4.20;;;;;;;;;;5075392;28;20024;-77
2020/12/30 00:22:19;;;;;;;6.22;2.85;;;;;;;;;;5075275;28;20039;-79
2020/12/30 00:24:45;;;;;;;4.10;1.40;;;;;;;;;;5074138;28;20086;-78
2020/12/30 00:27:12;;;;;;;6.50;1.67;;;;;;;;;;5075119;28;20024;-79
2020/12/30 00:29:39;;;;;;;3.35;1.17;;;;;;;;;;5074006;28;20047;-78
2020/12/30 00:32:06;;;;;;;6.80;1.20;;;;;;;;;;5075250;28;20078;-79
2020/12/30 00:34:32;;;;;;;6.72;1.92;;;;;;;;;;5075213;28;20074;-79
2020/12/30 00:37:00;;;;;;;5.63;1.88;;;;;;;;;;5075002;28;20040;-79
2020/12/30 00:39:26;;;;;;;4.63;1.50;;;;;;;;;;5075068;28;20024;-77
2020/12/30 00:41:52;;;;;;;3.97;1.30;;;;;;;;;;5075274;28;20036;-76
2020/12/30 00:44:18;;;;;;;3.97;1.35;;;;;;;;;;5074958;28;20095;-77
2020/12/30 00:46:44;;;;;;;3.13;1.30;;;;;;;;;;5074950;28;20056;-78
2020/12/30 00:49:11;;;;;;;6.85;1.42;;;;;;;;;;5074770;28;20468;-78
2020/12/30 00:51:37;;;;;;;5.35;1.90;;;;;;;;;;5074882;28;20074;-77
2020/12/30 00:54:04;;;;;;;5.13;1.65;;;;;;;;;;5074863;28;20522;-78
2020/12/30 00:56:30;;;;;;;6.78;2.65;;;;;;;;;;5074541;28;20035;-78
2020/12/30 00:58:56;;;;;;;6.63;1.83;;;;;;;;;;5074692;28;20035;-77
2020/12/30 01:01:22;;;;;;;6.05;1.98;;;;;;;;;;5074309;28;20028;-79
2020/12/30 01:03:48;;;;;;;6.18;2.10;;;;;;;;;;5074434;28;20025;-78
2020/12/30 01:06:14;;;;;;;5.68;1.52;;;;;;;;;;5074533;28;20025;-78
2020/12/30 01:08:41;;;;;;;4.07;1.88;;;;;;;;;;5074551;28;20123;-78
2020/12/30 01:11:07;;;;;;;5.13;2.30;;;;;;;;;;5074359;28;20028;-79
2020/12/30 01:13:33;;;;;;;8.20;3.60;;;;;;;;;;5073171;28;20024;-77
2020/12/30 01:15:59;;;;;;;8.98;2.45;;;;;;;;;;5074348;28;20051;-78
2020/12/30 01:18:25;;;;;;;4.85;2.00;;;;;;;;;;5074561;28;20491;-78
2020/12/30 01:20:51;;;;;;;6.15;2.13;;;;;;;;;;5074108;28;20123;-77
2020/12/30 01:23:17;;;;;;;5.95;2.13;;;;;;;;;;5072926;28;20467;-78
2020/12/30 01:25:43;;;;;;;5.75;1.23;;;;;;;;;;5074256;28;20025;-78
2020/12/30 01:28:09;;;;;;;6.47;1.63;;;;;;;;;;5074075;28;20889;-77
2020/12/30 01:30:35;;;;;;;3.92;1.65;;;;;;;;;;5074055;28;20025;-79
2020/12/30 01:33:01;;;;;;;4.88;1.27;;;;;;;;;;5073919;28;20027;-78
2020/12/30 01:35:27;;;;;;;4.43;0.80;;;;;;;;;;5074058;28;20502;-77
2020/12/30 01:37:54;;;;;;;5.07;1.30;;;;;;;;;;5073963;28;20078;-77
2020/12/30 01:40:20;;;;;;;5.80;1.67;;;;;;;;;;5073946;28;20032;-78
2020/12/30 01:42:47;;;;;;;4.82;1.40;;;;;;;;;;5073923;28;20025;-77
2020/12/30 01:45:14;;;;;;;4.57;1.83;;;;;;;;;;5073879;28;20020;-77
2020/12/30 01:47:40;;;;;;;6.03;1.25;;;;;;;;;;5073673;28;20075;-78
2020/12/30 01:50:07;;;;;;;9.40;2.35;;;;;;;;;;5073689;28;20081;-79
2020/12/30 01:52:34;;;;;;;4.03;1.50;;;;;;;;;;5073804;28;20056;-79
2020/12/30 01:55:00;;;;;;;5.30;1.70;;;;;;;;;;5073704;28;20380;-79
2020/12/30 01:57:26;;;;;;;4.32;1.17;;;;;;;;;;5073381;28;20045;-78
2020/12/30 01:59:53;;;;;;;3.88;1.27;;;;;;;;;;5072404;28;20035;-79
2020/12/30 02:02:22;;;;;;;3.05;1.10;;;;;;;;;;5073582;28;20478;-79
2020/12/30 02:04:50;;;;;;;2.65;0.80;;;;;;;;;;5073540;28;20039;-77
2020/12/30 02:07:17;;;;;;;3.03;0.80;;;;;;;;;;5073385;28;20029;-77
2020/12/30 02:09:44;;;;;;;2.88;0.77;;;;;;;;;;5073543;28;20036;-77
2020/12/30 02:12:10;;;;;;;2.90;1.05;;;;;;;;;;5072974;28;20033;-79
2020/12/30 02:14:36;;;;;;;5.88;3.00;;;;;;;;;;5073547;28;20044;-78
2020/12/30 02:17:03;;;;;;;7.65;4.18;;;;;;;;;;5073498;28;20065;-79
2020/12/30 02:19:29;;;;;;;10.80;5.35;;;;;;;;;;5073539;28;20035;-78
2020/12/30 02:21:56;;;;;;;6.78;3.50;;;;;;;;;;5073314;28;20029;-77
2020/12/30 02:24:25;;;;;;;5.07;1.60;;;;;;;;;;5073500;28;20029;-78
2020/12/30 02:26:52;;;;;;;4.53;1.75;;;;;;;;;;5073165;28;20017;-78
2020/12/30 02:29:18;;;;;;;4.47;1.48;;;;;;;;;;5073267;28;20107;-77
2020/12/30 02:31:44;;;;;;;3.67;0.98;;;;;;;;;;5073197;28;20078;-78
2020/12/30 02:34:10;;;;;;;5.72;1.23;;;;;;;;;;5073352;28;20099;-77
2020/12/30 02:36:36;;;;;;;4.07;1.30;;;;;;;;;;5073080;28;20073;-79
2020/12/30 02:39:02;;;;;;;5.63;1.15;;;;;;;;;;5073231;28;20025;-77
2020/12/30 02:41:28;;;;;;;2.95;1.20;;;;;;;;;;5073294;28;20027;-79
2020/12/30 02:43:54;;;;;;;8.93;2.53;;;;;;;;;;5073186;28;20031;-76
2020/12/30 02:46:20;;;;;;;3.42;1.10;;;;;;;;;;5072931;28;20104;-77
2020/12/30 02:48:47;;;;;;;5.13;1.10;;;;;;;;;;5073076;28;20090;-77
2020/12/30 02:51:13;;;;;;;4.75;1.17;;;;;;;;;;5073368;28;20361;-77
2020/12/30 02:53:39;;;;;;;5.45;0.75;;;;;;;;;;5073138;28;20021;-79
2020/12/30 02:56:05;;;;;;;2.13;1.00;;;;;;;;;;5073014;28;20029;-78
2020/12/30 02:58:31;;;;;;;8.82;3.58;;;;;;;;;;5072780;28;20395;-78
2020/12/30 03:00:57;;;;;;;5.22;1.73;;;;;;;;;;5072981;28;20033;-78
2020/12/30 03:03:24;;;;;;;6.85;1.35;;;;;;;;;;5073150;28;20174;-77
2020/12/30 03:05:51;;;;;;;3.70;1.73;;;;;;;;;;5072832;28;20107;-79
2020/12/30 03:08:17;;;;;;;4.90;1.95;;;;;;;;;;5071650;28;20162;-78
2020/12/30 03:10:43;;;;;;;5.22;2.13;;;;;;;;;;5073234;28;20478;-77
2020/12/30 03:13:09;;;;;;;4.90;2.22;;;;;;;;;;5072936;28;20032;-78
2020/12/30 03:15:35;;;;;;;7.63;2.25;;;;;;;;;;5072866;28;20029;-77
2020/12/30 03:18:01;;;;;;;5.63;1.88;;;;;;;;;;5073035;28;20376;-78
2020/12/30 03:20:27;;;;;;;6.80;2.45;;;;;;;;;;5072867;28;20031;-78
2020/12/30 03:22:53;;;;;;;5.68;2.10;;;;;;;;;;5072799;28;20025;-79
2020/12/30 03:25:19;;;;;;;7.63;2.30;;;;;;;;;;5076620;28;20133;-79
2020/12/30 03:27:45;;;;;;;6.82;2.92;;;;;;;;;;5076222;28;20031;-78
2020/12/30 03:30:12;;;;;;;7.40;5.00;;;;;;;;;;5076406;28;20055;-78
2020/12/30 03:32:38;;;;;;;6.22;2.65;;;;;;;;;;5076496;28;20028;-78
2020/12/30 03:35:04;;;;;;;3.95;1.77;;;;;;;;;;5076322;28;20021;-77
2020/12/30 03:37:30;;;;;;;7.63;2.40;;;;;;;;;;5076275;28;20024;-78
2020/12/30 03:39:56;;;;;;;5.60;1.70;;;;;;;;;;5076389;28;20024;-78
2020/12/30 03:42:22;;;;;;;6.50;2.15;;;;;;;;;;5076151;28;20020;-77
2020/12/30 03:44:48;;;;;;;3.65;1.38;;;;;;;;;;5076179;28;20081;-79
2020/12/30 03:47:14;;;;;;;4.82;1.40;;;;;;;;;;5076105;28;20025;-77
2020/12/30 03:49:42;;;;;;;4.63;1.70;;;;;;;;;;5075952;28;20107;-77
2020/12/30 03:52:08;;;;;;;6.22;1.42;;;;;;;;;;5075922;28;20036;-77
2020/12/30 03:54:34;;;;;;;3.63;1.15;;;;;;;;;;5076095;28;20056;-79
2020/12/30 03:57:00;;;;;;;4.82;1.23;;;;;;;;;;5075504;28;20083;-78
2020/12/30 03:59:26;;;;;;;2.55;1.08;;;;;;;;;;5075835;28;20086;-78
2020/12/30 04:01:52;;;;;;;5.97;1.52;;;;;;;;;;5075786;28;20028;-79
2020/12/30 04:04:18;;;;;;;4.30;1.73;;;;;;;;;;5075895;28;20111;-78
2020/12/30 04:06:44;;;;;;;3.72;1.67;;;;;;;;;;5075802;28;20391;-77
2020/12/30 04:09:10;;;;;;;2.63;1.45;;;;;;;;;;5075580;28;20039;-77
2020/12/30 04:11:36;;;;;;;5.35;1.13;;;;;;;;;;5075579;28;20029;-78
2020/12/30 04:14:03;;;;;;;4.15;1.40;;;;;;;;;;5075639;28;20032;-77
2020/12/30 04:16:29;;;;;;;4.15;1.30;;;;;;;;;;5075717;28;20020;-77
2020/12/30 04:18:55;;;;;;;5.25;1.40;;;;;;;;;;5075702;28;20043;-77
2020/12/30 04:21:24;;;;;;;3.08;0.88;;;;;;;;;;5075482;28;20028;-78
2020/12/30 04:23:51;;;;;;;3.60;0.98;;;;;;;;;;5075325;28;20054;-77
2020/12/30 04:26:17;;;;;;;3.20;1.15;;;;;;;;;;5075492;28;20025;-79
2020/12/30 04:28:43;;;;;;;6.35;1.38;;;;;;;;;;5075071;28;20076;-78
2020/12/30 04:31:13;;;;;;;3.00;1.30;;;;;;;;;;5075441;28;20383;-78
2020/12/30 04:33:40;;;;;;;4.45;1.80;;;;;;;;;;5075247;28;20031;-77
2020/12/30 04:36:06;;;;;;;3.28;1.48;;;;;;;;;;5074352;28;20044;-74
2020/12/30 04:38:33;;;;;;;9.18;2.10;;;;;;;;;;5075099;28;20414;-77
2020/12/30 04:40:59;;;;;;;5.63;1.77;;;;;;;;;;5075273;28;20032;-77
2020/12/30 04:43:28;;;;;;;6.95;1.65;;;;;;;;;;5075020;28;20095;-77
2020/12/30 04:45:55;;;;;;;5.35;1.80;;;;;;;;;;5075024;28;20418;-78
2020/12/30 04:48:22;;;;;;;5.38;1.08;;;;;;;;;;5074920;28;20457;-78
2020/12/30 04:50:48;;;;;;;5.88;1.42;;;;;;;;;;5074801;28;20032;-78
2020/12/30 04:53:14;;;;;;;5.10;1.30;;;;;;;;;;5074904;28;20024;-79
2020/12/30 04:55:41;;;;;;;7.60;2.10;;;;;;;;;;5074759;28;20027;-74
2020/12/30 04:58:08;;;;;;;5.30;1.35;;;;;;;;;;5073630;28;20055;-77
2020/12/30 05:00:35;;;;;;;4.40;1.15;;;;;;;;;;5074882;28;20523;-79
2020/12/30 05:03:05;;;;;;;5.10;1.20;;;;;;;;;;5074643;28;20107;-77
2020/12/30 05:05:32;;;;;;;7.05;1.20;;;;;;;;;;5074239;28;20103;-79
2020/12/30 05:07:58;;;;;;;5.25;1.02;;;;;;;;;;5074367;28;20425;-79
2020/12/30 05:10:24;;;;;;;6.18;1.08;;;;;;;;;;5074727;28;20028;-76
2020/12/30 05:12:53;;;;;;;5.47;1.00;;;;;;;;;;5073218;28;20054;-77
2020/12/30 05:15:19;;;;;;;4.00;1.15;;;;;;;;;;5074420;28;20386;-79
2020/12/30 05:17:45;;;;;;;4.72;0.90;;;;;;;;;;5074363;28;20025;-78
2020/12/30 05:20:11;;;;;;;3.53;0.88;;;;;;;;;;5074217;28;20025;-78
2020/12/30 05:22:37;;;;;;;4.28;1.27;;;;;;;;;;5074134;28;20433;-77
2020/12/30 05:25:05;;;;;;;8.23;2.70;;;;;;;;;;5074256;28;20031;-78
2020/12/30 05:27:31;;;;;;;12.18;6.45;;;;;;;;;;5074128;28;20482;-76
2020/12/30 05:29:57;;;;;;;8.23;3.22;;;;;;;;;;5074298;28;20027;-79
2020/12/30 05:32:23;;;;;;;9.40;4.93;;;;;;;;;;5073757;28;20533;-80
2020/12/30 05:34:50;;;;;;;12.70;6.00;;;;;;;;;;5073524;28;20039;-77
2020/12/30 05:37:17;;;;;;;9.68;5.20;;;;;;;;;;5073985;28;20021;-78
2020/12/30 05:39:43;;;;;;;10.85;5.47;;;;;;;;;;5073847;28;20029;-77
2020/12/30 05:42:16;;;;;;;9.27;4.43;;;;;;;;;;5073406;28;20494;-77
2020/12/30 05:44:43;;;;;;;14.07;8.93;;;;;;;;;;5073789;28;20025;-77
2020/12/30 05:47:16;;;;;;;18.02;11.95;;;;;;;;;;5073622;28;20021;-77
2020/12/30 05:49:44;;;;;;;99.35;68.38;;;;;;;;;;5073655;28;20027;-77
2020/12/30 05:52:11;;;;;;;76.55;56.70;;;;;;;;;;5073611;28;20052;-77
2020/12/30 05:54:37;;;;;;;16.67;10.38;;;;;;;;;;5073474;28;20025;-77
2020/12/30 05:57:19;;;;;;;8.15;5.68;;;;;;;;;;5073398;28;20055;-77
2020/12/30 05:59:45;;;;;;;7.78;4.68;;;;;;;;;;5073210;28;20398;-77
2020/12/30 06:02:12;;;;;;;5.18;2.60;;;;;;;;;;5073510;28;20029;-77
2020/12/30 06:04:38;;;;;;;5.43;2.60;;;;;;;;;;5073345;28;20051;-78
2020/12/30 06:07:04;;;;;;;7.15;3.25;;;;;;;;;;5073297;28;20017;-77
2020/12/30 06:09:38;;;;;;;5.82;2.35;;;;;;;;;;5073299;28;20032;-77
2020/12/30 06:12:05;;;;;;;5.20;1.90;;;;;;;;;;5077428;28;20028;-77
2020/12/30 06:14:32;;;;;;;4.97;1.63;;;;;;;;;;5075561;28;20021;-77
2020/12/30 06:17:01;;;;;;;4.05;2.40;;;;;;;;;;5078024;28;20035;-76
2020/12/30 06:19:28;;;;;;;4.47;1.98;;;;;;;;;;5093676;28;20027;-77
2020/12/30 06:21:54;;;;;;;3.88;1.60;;;;;;;;;;5093744;28;20355;-77
2020/12/30 06:24:21;;;;;;;4.28;1.40;;;;;;;;;;5093462;28;20460;-78
2020/12/30 06:26:47;;;;;;;6.63;2.55;;;;;;;;;;5092904;28;20028;-78
2020/12/30 06:29:15;;;;;;;6.72;2.67;;;;;;;;;;5093418;28;20102;-77
2020/12/30 06:31:45;;;;;;;6.20;3.65;;;;;;;;;;5088376;28;20025;-76
2020/12/30 06:34:12;;;;;;;3.70;2.10;;;;;;;;;;5082394;28;20028;-75
2020/12/30 06:36:38;;;;;;;5.55;2.50;;;;;;;;;;5089045;28;20530;-78
2020/12/30 06:39:23;;;;;;;6.18;2.88;;;;;;;;;;5084100;28;20020;-77
2020/12/30 06:42:02;;;;;;;11.02;6.13;;;;;;;;;;5093423;28;20025;-77
2020/12/30 06:44:47;;;;;;;9.05;3.15;;;;;;;;;;5089056;28;20036;-78
2020/12/30 06:47:13;;;;;;;;;;;;;;;;;;5090339;28;20055;-77
2020/12/30 06:49:39;;;;;;;8.05;5.05;;;;;;;;;;5090800;28;20359;-75
2020/12/30 06:52:25;;;;;;;6.65;1.92;;;;;;;;;;5092143;28;20093;-78
2020/12/30 06:54:51;;;;;;;7.28;2.22;;;;;;;;;;5091951;28;20059;-77
2020/12/30 06:57:53;;;;;;;4.22;1.38;;;;;;;;;;5091403;28;20052;-77
2020/12/30 07:00:22;;;;;;;14.73;10.27;;;;;;;;;;5032287;28;20180;-76
2020/12/30 07:03:06;;;;;;;41.03;27.40;;;;;;;;;;5033471;28;20049;-76
2020/12/30 07:05:32;;;;;;;9.70;6.22;;;;;;;;;;5032662;28;20043;-75
2020/12/30 07:07:58;;;;;;;16.55;9.32;;;;;;;;;;5033128;28;20049;-75
2020/12/30 07:10:24;;;;;;;9.38;2.58;;;;;;;;;;5032986;28;20030;-75
2020/12/30 07:12:50;;;;;;;6.05;2.20;;;;;;;;;;5032905;28;20667;-76
2020/12/30 07:15:24;;;;;;;6.10;3.05;;;;;;;;;;5060308;28;20037;-76
2020/12/30 07:17:50;;;;;;;4.80;1.73;;;;;;;;;;5075575;28;20056;-77
2020/12/30 07:20:22;;;;;;;4.50;1.88;;;;;;;;;;5088611;28;20035;-76
2020/12/30 07:22:48;;;;;;;7.38;2.45;;;;;;;;;;5095501;28;20031;-76
2020/12/30 07:25:15;;;;;;;6.93;3.05;;;;;;;;;;5095763;28;20115;-76
2020/12/30 07:27:43;;;;;;;8.52;4.18;;;;;;;;;;5094897;28;20541;-76
2020/12/30 07:30:10;;;;;;;5.90;2.95;;;;;;;;;;5095462;28;20032;-76
2020/12/30 07:32:36;;;;;;;24.70;19.50;;;;;;;;;;5093936;28;20494;-76
2020/12/30 07:35:03;;;;;;;5.88;2.42;;;;;;;;;;5095000;28;20032;-76
2020/12/30 07:37:29;;;;;;;5.47;2.40;;;;;;;;;;5095171;28;20089;-76
2020/12/30 07:39:55;;;;;;;7.00;2.95;;;;;;;;;;5095404;28;20035;-76
2020/12/30 07:42:27;;;;;;;5.45;2.25;;;;;;;;;;5095077;28;20028;-77
2020/12/30 07:44:54;;;;;;;6.28;2.92;;;;;;;;;;5093922;28;20024;-76
2020/12/30 07:47:21;;;;;;;10.18;2.78;;;;;;;;;;5095048;28;20055;-77
2020/12/30 07:49:47;;;;;;;8.00;1.80;;;;;;;;;;5093747;28;20028;-78
2020/12/30 07:52:13;;;;;;;7.85;1.80;;;;;;;;;;5095019;28;20028;-79
2020/12/30 07:54:40;;;;;;;7.57;2.42;;;;;;;;;;5094649;28;20031;-78
2020/12/30 07:57:11;;;;;;;7.00;2.03;;;;;;;;;;5094594;28;20051;-77
2020/12/30 07:59:38;;;;;;;11.35;3.20;;;;;;;;;;5094735;28;20028;-77
2020/12/30 08:02:05;;;;;;;5.53;2.08;;;;;;;;;;5094902;28;20056;-78
2020/12/30 08:04:33;;;;;;;6.60;2.40;;;;;;;;;;5094517;28;20023;-78
2020/12/30 08:06:59;;;;;;;5.82;1.60;;;;;;;;;;5094379;28;20023;-76
2020/12/30 08:09:26;;;;;;;5.13;1.55;;;;;;;;;;5093757;28;20055;-76
2020/12/30 08:11:57;;;;;;;10.65;2.90;;;;;;;;;;5092125;28;20549;-76
2020/12/30 08:14:24;;;;;;;4.50;1.80;;;;;;;;;;5094729;28;20024;-75
2020/12/30 08:16:50;;;;;;;5.63;2.47;;;;;;;;;;5094383;28;20115;-77
2020/12/30 08:19:35;;;;;;;5.53;2.25;;;;;;;;;;5094223;28;20095;-78
2020/12/30 08:22:02;;;;;;;4.45;1.30;;;;;;;;;;5093628;28;20027;-78
2020/12/30 08:24:29;;;;;;;7.55;1.85;;;;;;;;;;5094436;28;20036;-77
2020/12/30 08:26:55;;;;;;;6.68;1.73;;;;;;;;;;5094019;28;20055;-78
2020/12/30 08:29:22;;;;;;;5.07;1.92;;;;;;;;;;5089785;28;20486;-77
2020/12/30 08:31:50;;;;;;;11.68;5.70;;;;;;;;;;5080343;28;20414;-77
2020/12/30 08:34:17;;;;;;;7.40;3.47;;;;;;;;;;5073763;28;20028;-76
2020/12/30 08:36:46;;;;;;;7.63;3.25;;;;;;;;;;5073709;28;20126;-78
2020/12/30 08:39:14;;;;;;;17.70;12.32;;;;;;;;;;5074097;28;20058;-76
2020/12/30 08:41:59;;;;;;;11.25;7.10;;;;;;;;;;5073493;28;20103;-76
2020/12/30 08:44:26;;;;;;;7.53;1.92;;;;;;;;;;5079746;28;20024;-77
2020/12/30 08:46:54;;;;;;;7.75;2.25;;;;;;;;;;5083705;28;20027;-77
2020/12/30 08:49:21;;;;;;;6.03;1.80;;;;;;;;;;5078359;28;20706;-77
2020/12/30 08:51:47;;;;;;;4.57;1.33;;;;;;;;;;5073584;28;20029;-78
2020/12/30 08:54:14;;;;;;;4.95;1.10;;;;;;;;;;5073530;28;20055;-79
2020/12/30 08:56:42;;;;;;;4.95;1.50;;;;;;;;;;5073020;28;20028;-78
2020/12/30 08:59:08;;;;;;;5.32;1.80;;;;;;;;;;5073155;28;20028;-76
2020/12/30 09:01:34;;;;;;;7.93;2.53;;;;;;;;;;5073668;28;20056;-77
2020/12/30 09:04:10;;;;;;;8.52;2.67;;;;;;;;;;5072983;28;20091;-77
2020/12/30 09:06:36;;;;;;;6.78;2.20;;;;;;;;;;5075525;28;20041;-77
2020/12/30 09:09:28;;;;;;;8.90;2.95;;;;;;;;;;5092417;28;20104;-78
2020/12/30 09:11:54;;;;;;;7.53;2.38;;;;;;;;;;5084045;28;20479;-75
2020/12/30 09:14:21;;;;;;;3.90;1.75;;;;;;;;;;5092037;28;20066;-78
2020/12/30 09:17:11;;;;;;;5.57;1.92;;;;;;;;;;5090071;28;20016;-77
2020/12/30 09:19:37;;;;;;;5.30;2.10;;;;;;;;;;5091354;28;20077;-77
2020/12/30 09:22:09;;;;;;;8.90;2.08;;;;;;;;;;5092201;28;20038;-76
2020/12/30 09:24:38;;;;;;;9.48;2.70;;;;;;;;;;5092975;28;20107;-78
2020/12/30 09:27:17;;;;;;;7.82;1.83;;;;;;;;;;5094201;28;20015;-78
2020/12/30 09:29:43;;;;;;;7.53;1.52;;;;;;;;;;5086454;28;20044;-76
2020/12/30 09:32:09;;;;;;;8.18;3.65;;;;;;;;;;5075691;28;20444;-76
2020/12/30 09:34:35;;;;;;;10.43;4.85;;;;;;;;;;5074075;28;20027;-77
2020/12/30 09:37:01;;;;;;;5.70;4.28;;;;;;;;;;5082106;28;20035;-76
2020/12/30 09:39:28;;;;;;;4.40;1.35;;;;;;;;;;5070854;28;20436;-76
2020/12/30 09:42:05;;;;;;;9.95;2.30;;;;;;;;;;5071881;28;20032;-76
2020/12/30 09:44:31;;;;;;;6.25;2.42;;;;;;;;;;5072219;28;20024;-75
2020/12/30 09:46:57;;;;;;;12.43;5.25;;;;;;;;;;5072643;28;20028;-75
2020/12/30 09:49:24;;;;;;;8.23;2.85;;;;;;;;;;5072209;28;20047;-75
2020/12/30 09:51:56;;;;;;;17.58;9.32;;;;;;;;;;5072336;28;20055;-75
2020/12/30 09:54:22;;;;;;;11.88;4.95;;;;;;;;;;5072113;28;20020;-74
2020/12/30 09:56:49;;;;;;;6.57;1.52;;;;;;;;;;5072020;28;20057;-76
2020/12/30 09:59:20;;;;;;;8.00;1.60;;;;;;;;;;5072341;28;20032;-77
2020/12/30 10:01:47;;;;;;;10.73;2.15;;;;;;;;;;5079289;28;20560;-77
2020/12/30 10:04:13;;;;;;;6.75;1.25;;;;;;;;;;5091689;28;20074;-77
2020/12/30 10:06:39;;;;;;;7.03;1.80;;;;;;;;;;5090649;28;20352;-76
2020/12/30 10:09:06;;;;;;;8.20;2.10;;;;;;;;;;5091051;28;20068;-76
2020/12/30 10:11:32;;;;;;;6.60;2.13;;;;;;;;;;5092262;28;20032;-75
2020/12/30 10:13:58;;;;;;;7.97;1.10;;;;;;;;;;5092646;28;20039;-75
2020/12/30 10:16:30;;;;;;;5.70;1.83;;;;;;;;;;5091878;28;20035;-76
2020/12/30 10:18:56;;;;;;;8.80;1.70;;;;;;;;;;5092581;28;20026;-76
2020/12/30 10:21:27;;;;;;;8.35;2.17;;;;;;;;;;5092090;28;20032;-77
2020/12/30 10:23:53;;;;;;;9.20;1.42;;;;;;;;;;5079498;28;20036;-75
2020/12/30 10:26:19;;;;;;;8.10;1.30;;;;;;;;;;5073765;28;20394;-76
2020/12/30 10:28:45;;;;;;;8.82;1.48;;;;;;;;;;5072133;28;20039;-76
2020/12/30 10:31:15;;;;;;;6.95;1.25;;;;;;;;;;5071711;28;20082;-78
2020/12/30 10:33:41;;;;;;;10.25;2.20;;;;;;;;;;5071228;28;20475;-77
2020/12/30 10:36:07;;;;;;;7.45;1.27;;;;;;;;;;5072230;28;20122;-76
2020/12/30 10:38:33;;;;;;;8.05;1.85;;;;;;;;;;5071466;28;20031;-77
2020/12/30 10:41:00;;;;;;;5.57;1.17;;;;;;;;;;5077178;28;20024;-77
2020/12/30 10:43:26;;;;;;;9.13;1.65;;;;;;;;;;5072785;28;20090;-76
2020/12/30 10:45:52;;;;;;;7.78;1.25;;;;;;;;;;5071416;28;20086;-77
2020/12/30 10:48:19;;;;;;;6.63;1.70;;;;;;;;;;5071778;28;20070;-78
2020/12/30 10:50:48;;;;;;;7.97;1.52;;;;;;;;;;5080333;28;20027;-77
2020/12/30 10:53:22;;;;;;;5.72;2.03;;;;;;;;;;5087433;28;20077;-80
2020/12/30 10:55:48;;;;;;;6.60;1.88;;;;;;;;;;5086606;28;20031;-76
2020/12/30 10:58:14;;;;;;;12.90;1.70;;;;;;;;;;5090991;28;20056;-75
2020/12/30 11:00:41;;;;;;;8.07;1.15;;;;;;;;;;5088503;28;20036;-78
2020/12/30 11:03:07;;;;;;;8.32;1.23;;;;;;;;;;5101413;28;20424;-76
2020/12/30 11:05:33;;;;;;;8.52;1.80;;;;;;;;;;5112078;28;20027;-75
2020/12/30 11:07:59;;;;;;;9.00;2.15;;;;;;;;;;5089718;28;20055;-75
2020/12/30 11:10:26;;;;;;;8.48;2.00;;;;;;;;;;5091540;28;20123;-77
2020/12/30 11:12:52;;;;;;;6.53;1.10;;;;;;;;;;5092010;28;20467;-76
2020/12/30 11:15:18;;;;;;;12.60;6.75;;;;;;;;;;5088130;28;20032;-75
2020/12/30 11:17:44;;;;;;;8.82;3.35;;;;;;;;;;5084408;28;20062;-77
2020/12/30 11:20:11;;;;;;;7.30;3.03;;;;;;;;;;5086191;28;20060;-75
2020/12/30 11:22:38;;;;;;;6.72;2.70;;;;;;;;;;5101028;28;20039;-75
2020/12/30 11:25:04;;;;;;;6.63;1.63;;;;;;;;;;5112244;28;20027;-75
2020/12/30 11:27:30;;;;;;;14.45;2.40;;;;;;;;;;5111859;28;20043;-76
2020/12/30 11:29:56;;;;;;;5.32;1.15;;;;;;;;;;5111499;28;20053;-75
2020/12/30 11:32:22;;;;;;;8.00;1.60;;;;;;;;;;5111827;28;20024;-76
2020/12/30 11:34:49;;;;;;;8.05;2.17;;;;;;;;;;5091638;28;20044;-75
2020/12/30 11:37:15;;;;;;;9.52;2.45;;;;;;;;;;5089789;28;20073;-75
2020/12/30 11:39:41;;;;;;;10.88;2.65;;;;;;;;;;5109512;28;20023;-76
2020/12/30 11:42:07;;;;;;;10.15;2.63;;;;;;;;;;5091258;28;20485;-76
2020/12/30 11:44:33;;;;;;;12.32;3.33;;;;;;;;;;5092460;28;20028;-77
2020/12/30 11:46:59;;;;;;;6.40;1.63;;;;;;;;;;5094124;28;20394;-76
2020/12/30 11:49:27;;;;;;;6.45;1.77;;;;;;;;;;5093486;28;20036;-75
2020/12/30 11:51:59;;;;;;;8.73;2.13;;;;;;;;;;5091087;28;20028;-75
2020/12/30 11:54:25;;;;;;;7.35;1.83;;;;;;;;;;5089549;28;20054;-76
2020/12/30 11:56:51;;;;;;;11.77;1.73;;;;;;;;;;5093737;28;20670;-75
2020/12/30 11:59:17;;;;;;;7.35;2.10;;;;;;;;;;5095274;28;20059;-77
2020/12/30 12:01:44;;;;;;;12.13;2.25;;;;;;;;;;5094456;28;20028;-74
2020/12/30 12:04:10;;;;;;;9.43;1.95;;;;;;;;;;5094826;28;20024;-78
2020/12/30 12:06:36;;;;;;;9.07;1.80;;;;;;;;;;5094770;28;20486;-78
2020/12/30 12:09:02;;;;;;;8.38;1.92;;;;;;;;;;5094730;28;20055;-75
2020/12/30 12:11:28;;;;;;;7.43;2.00;;;;;;;;;;5094714;28;20464;-76
2020/12/30 12:13:54;;;;;;;10.43;2.42;;;;;;;;;;5094358;28;20035;-81
2020/12/30 12:16:21;;;;;;;7.13;1.60;;;;;;;;;;5094453;28;20039;-72
2020/12/30 12:18:47;;;;;;;8.77;2.35;;;;;;;;;;5094535;28;20471;-77
2020/12/30 12:21:13;;;;;;;8.20;2.25;;;;;;;;;;5077467;28;20503;-77
2020/12/30 12:23:39;;;;;;;10.45;2.67;;;;;;;;;;5074202;28;20028;-76
2020/12/30 12:26:05;;;;;;;12.60;2.67;;;;;;;;;;5074287;28;20053;-77
2020/12/30 12:28:39;;;;;;;10.40;1.98;;;;;;;;;;5073959;28;20039;-76
2020/12/30 12:31:05;;;;;;;10.77;2.30;;;;;;;;;;5081141;28;20027;-79
2020/12/30 12:33:31;;;;;;;9.45;2.42;;;;;;;;;;5078309;28;20115;-77
2020/12/30 12:35:57;;;;;;;11.40;1.65;;;;;;;;;;5073611;28;20033;-76
2020/12/30 12:38:23;;;;;;;12.10;2.17;;;;;;;;;;5073828;28;20056;-74
2020/12/30 12:40:49;;;;;;;11.38;2.72;;;;;;;;;;5076196;28;20081;-77
2020/12/30 12:43:15;;;;;;;10.95;3.38;;;;;;;;;;5095009;28;20481;-78
2020/12/30 12:45:41;;;;;;;13.80;2.88;;;;;;;;;;5106535;28;20077;-77
2020/12/30 12:48:08;;;;;;;10.80;3.20;;;;;;;;;;5095839;28;20040;-77
2020/12/30 12:50:34;;;;;;;10.30;3.03;;;;;;;;;;5093304;28;20490;-78
2020/12/30 12:53:00;;;;;;;8.48;2.08;;;;;;;;;;5090718;28;20029;-75
2020/12/30 12:55:26;;;;;;;9.65;2.20;;;;;;;;;;5092056;28;20032;-77
2020/12/30 12:57:52;;;;;;;15.05;2.55;;;;;;;;;;5092117;28;20060;-77
2020/12/30 13:00:18;;;;;;;11.32;2.30;;;;;;;;;;5092323;28;20601;-71
2020/12/30 13:02:44;;;;;;;15.98;2.58;;;;;;;;;;5093163;28;20467;-71
2020/12/30 13:05:11;;;;;;;13.13;1.80;;;;;;;;;;5092428;28;20032;-70
2020/12/30 13:07:37;;;;;;;9.98;1.98;;;;;;;;;;5093016;28;20036;-70
2020/12/30 13:10:04;;;;;;;14.57;3.00;;;;;;;;;;5090617;28;20101;-70
2020/12/30 13:12:30;;;;;;;11.68;3.28;;;;;;;;;;5073498;28;20119;-78
2020/12/30 13:14:57;;;;;;;16.67;3.78;;;;;;;;;;5087771;28;20024;-78
2020/12/30 13:17:23;;;;;;;13.65;3.70;;;;;;;;;;5092262;28;20038;-77
2020/12/30 13:19:49;;;;;;;15.00;2.80;;;;;;;;;;5090999;28;20032;-78
2020/12/30 13:22:16;;;;;;;11.75;2.55;;;;;;;;;;5093048;28;20036;-79
2020/12/30 13:24:42;;;;;;;18.58;7.45;;;;;;;;;;5072761;28;20032;-75
2020/12/30 13:27:08;;;;;;;16.42;4.97;;;;;;;;;;5072927;28;20020;-79
2020/12/30 13:29:34;;;;;;;27.00;16.08;;;;;;;;;;5077140;28;20127;-76
2020/12/30 13:32:00;;;;;;;9.93;3.72;;;;;;;;;;5091443;28;20066;-76
2020/12/30 13:34:26;;;;;;;16.02;5.15;;;;;;;;;;5092972;28;20747;-78
2020/12/30 13:36:53;;;;;;;9.05;2.20;;;;;;;;;;5092696;28;20024;-79
2020/12/30 13:39:22;;;;;;;13.23;2.78;;;;;;;;;;5092273;28;20070;-78
2020/12/30 13:41:48;;;;;;;13.35;3.90;;;;;;;;;;5092069;28;20036;-79
2020/12/30 13:44:15;;;;;;;12.98;2.78;;;;;;;;;;5091299;28;20032;-76
2020/12/30 13:46:41;;;;;;;18.33;2.97;;;;;;;;;;5092174;28;20490;-76
2020/12/30 13:49:07;;;;;;;11.82;2.58;;;;;;;;;;5091744;28;20040;-78
2020/12/30 13:51:34;;;;;;;13.50;6.20;;;;;;;;;;5092161;28;20035;-78
2020/12/30 13:54:01;;;;;;;28.02;17.60;;;;;;;;;;5092695;28;20035;-75
2020/12/30 13:56:28;;;;;;;22.05;11.38;;;;;;;;;;5090818;28;20448;-78
2020/12/30 13:58:54;;;;;;;13.85;2.13;;;;;;;;;;5077745;28;20025;-75
2020/12/30 14:01:21;;;;;;;11.85;3.03;;;;;;;;;;5089851;28;20028;-77
2020/12/30 14:03:47;;;;;;;12.20;2.72;;;;;;;;;;5092474;28;20020;-76
2020/12/30 14:06:22;;;;;;;7.30;2.22;;;;;;;;;;5084099;28;20024;-74
2020/12/30 14:08:48;;;;;;;10.55;2.33;;;;;;;;;;5071208;28;20047;-76
2020/12/30 14:11:15;;;;;;;12.40;2.50;;;;;;;;;;5071922;28;20062;-75
2020/12/30 14:13:44;;;;;;;11.85;2.42;;;;;;;;;;5072106;28;20059;-75
2020/12/30 14:16:12;;;;;;;16.15;3.53;;;;;;;;;;5072083;28;20024;-76
2020/12/30 14:18:39;;;;;;;12.13;2.40;;;;;;;;;;5079907;28;20096;-75
2020/12/30 14:21:05;;;;;;;10.75;2.80;;;;;;;;;;5080764;28;20020;-76
2020/12/30 14:23:31;;;;;;;11.68;1.92;;;;;;;;;;5091765;28;20042;-75
2020/12/30 14:25:57;;;;;;;10.48;2.40;;;;;;;;;;5090770;28;20081;-75
2020/12/30 14:28:23;;;;;;;11.13;2.38;;;;;;;;;;5091985;28;20032;-76
2020/12/30 14:30:50;;;;;;;10.30;2.97;;;;;;;;;;5090539;28;20028;-76
2020/12/30 14:33:16;;;;;;;13.75;3.00;;;;;;;;;;5092149;28;20027;-77
2020/12/30 14:35:43;;;;;;;15.60;5.60;;;;;;;;;;5092236;28;20059;-76
2020/12/30 14:38:09;;;;;;;14.18;4.45;;;;;;;;;;5091791;28;20451;-76
2020/12/30 14:40:35;;;;;;;10.77;3.10;;;;;;;;;;5088801;28;20198;-76